Ilyas Araz — TCAS9 — position and weather

sailwx.info

Track history (hours):
 
Tides and Currents Weather Stations Pressure Air Temp Water Temp Dewpoint Dewpoint Depression Visibility Wind Speed Wind Dir Waves Ship Positions

Ilyas Araz

Last reported at 2015-Jun-30 19:05 UTC. Time now 2015-Jul-02 03:33 UTC.
Position N 41°16' E 029°22'.

Length 64 m; draft 5.4 m.

Type: Cargo ship. MMSI: 271002108.

Date/timePositionNaut miles runAvg speedWind from/ knotsBaromVisibWave heightAir tempDewpointWater temp
2015-Jun-30 19:05N 41°16' E 029°22'4 8.4
2015-Jun-30 18:33N 41°16' E 029°28'  
2015-Jun-26 09:31N 40°57' E 029°02'7 7.7
2015-Jun-26 08:33N 40°53' E 029°10'2 1.8
2015-Jun-26 07:33N 40°53' E 029°12'0 0.0
2015-Jun-26 06:33N 40°53' E 029°12'0 0.0
2015-Jun-26 05:33N 40°53' E 029°12'0 0.0
2015-Jun-26 04:33N 40°53' E 029°12'0 0.0
2015-Jun-26 01:21N 40°53' E 029°12'0 0.0
2015-Jun-26 00:21N 40°53' E 029°12'0 0.0
2015-Jun-25 23:33N 40°53' E 029°12'0 0.0
2015-Jun-25 22:33N 40°53' E 029°12'0 0.0
2015-Jun-25 21:33N 40°53' E 029°12'2 1.9
2015-Jun-25 20:33N 40°51' E 029°10'11 0.4
2015-Jun-24 18:33N 40°41' E 029°04'1110.6
2015-Jun-24 17:32N 40°43' E 029°18'  
Track history (hours):
 
Tides and Currents Weather Stations Pressure Air Temp Water Temp Dewpoint Dewpoint Depression Visibility Wind Speed Wind Dir Waves Ship Positions

Ilyas Araz

Last reported at 2015-Jun-30 19:05 UTC. Time now 2015-Jul-02 03:33 UTC.
Position N 41°16' E 029°22'.

Length 64 m; draft 5.4 m.

Type: Cargo ship. MMSI: 271002108.

Date/timePositionNaut miles runAvg speedWind from/ knotsBaromVisibWave heightAir tempDewpointWater temp
2015-Jun-30 19:05N 41°16' E 029°22'4 8.4
2015-Jun-30 18:33N 41°16' E 029°28'  
2015-Jun-26 09:31N 40°57' E 029°02'7 7.7
2015-Jun-26 08:33N 40°53' E 029°10'2 1.8
2015-Jun-26 07:33N 40°53' E 029°12'0 0.0
2015-Jun-26 06:33N 40°53' E 029°12'0 0.0
2015-Jun-26 05:33N 40°53' E 029°12'0 0.0
2015-Jun-26 04:33N 40°53' E 029°12'0 0.0
2015-Jun-26 01:21N 40°53' E 029°12'0 0.0
2015-Jun-26 00:21N 40°53' E 029°12'0 0.0
2015-Jun-25 23:33N 40°53' E 029°12'0 0.0
2015-Jun-25 22:33N 40°53' E 029°12'0 0.0
2015-Jun-25 21:33N 40°53' E 029°12'2 1.9
2015-Jun-25 20:33N 40°51' E 029°10'11 0.4
2015-Jun-24 18:33N 40°41' E 029°04'1110.6
2015-Jun-24 17:32N 40°43' E 029°18'  

Dump ship's entire track history